createdAt,value
2018-01-19T00:01:22.976Z,3.60
2018-01-19T00:03:56.472Z,3.70
2018-01-19T00:06:25.592Z,3.70
2018-01-19T00:08:53.959Z,3.70
2018-01-19T00:11:23.049Z,3.70
2018-01-19T00:13:52.193Z,3.60
2018-01-19T00:16:20.636Z,3.60
2018-01-19T00:18:49.009Z,3.60
2018-01-19T00:21:18.115Z,3.70
2018-01-19T00:23:46.550Z,3.70
2018-01-19T00:26:14.927Z,3.80
2018-01-19T00:28:43.297Z,3.70
2018-01-19T00:31:11.654Z,3.60
2018-01-19T00:33:40.026Z,3.60
2018-01-19T00:36:08.364Z,3.60
2018-01-19T00:38:36.754Z,3.60
2018-01-19T00:41:05.856Z,3.60
2018-01-19T00:46:34.675Z,3.60
2018-01-19T00:49:03.794Z,3.60
2018-01-19T00:51:32.127Z,3.60
2018-01-19T00:54:00.460Z,3.60
2018-01-19T00:56:28.784Z,3.60
2018-01-19T00:58:58.953Z,3.50
2018-01-19T01:01:27.271Z,3.50
2018-01-19T01:04:00.302Z,3.60
2018-01-19T01:06:29.386Z,3.60
2018-01-19T01:08:58.491Z,3.50
2018-01-19T01:11:26.825Z,3.50
2018-01-19T01:13:55.143Z,3.50
2018-01-19T01:16:24.230Z,3.50
2018-01-19T01:18:53.318Z,3.50
2018-01-19T01:21:21.632Z,3.50
2018-01-19T01:23:50.127Z,3.50
2018-01-19T01:26:19.168Z,3.50
2018-01-19T01:28:47.495Z,3.50
2018-01-19T01:31:15.990Z,3.50
2018-01-19T01:33:44.322Z,3.50
2018-01-19T01:36:12.672Z,3.50
2018-01-19T01:38:40.985Z,3.50
2018-01-19T01:41:21.119Z,3.50
2018-01-19T01:43:49.448Z,3.50
2018-01-19T01:46:17.796Z,3.50
2018-01-19T01:51:46.724Z,3.60
2018-01-19T01:54:15.066Z,3.60
2018-01-19T01:56:43.379Z,3.60
2018-01-19T01:59:11.731Z,3.50
2018-01-19T02:01:40.815Z,3.40
2018-01-19T02:04:09.124Z,3.40
2018-01-19T02:06:37.566Z,3.30
2018-01-19T02:09:05.902Z,3.30
2018-01-19T02:11:34.232Z,3.30
2018-01-19T02:14:03.337Z,3.30
2018-01-19T02:16:32.465Z,3.30
2018-01-19T02:19:01.584Z,3.30
2018-01-19T02:21:29.976Z,3.30
2018-01-19T02:23:58.304Z,3.40
2018-01-19T02:26:27.405Z,3.30
2018-01-19T02:28:56.507Z,3.30
2018-01-19T02:31:24.887Z,3.20
2018-01-19T02:33:53.979Z,3.30
2018-01-19T02:36:22.311Z,3.30
2018-01-19T02:38:50.660Z,3.30
2018-01-19T02:41:19.005Z,3.30
2018-01-19T02:43:47.369Z,3.30
2018-01-19T02:46:15.719Z,3.30
2018-01-19T02:48:44.064Z,3.30
2018-01-19T02:51:12.485Z,3.30
2018-01-19T02:53:40.920Z,3.30
2018-01-19T02:56:10.059Z,3.40
2018-01-19T02:58:38.409Z,3.30
2018-01-19T03:01:06.757Z,3.40
2018-01-19T03:03:35.861Z,3.40
2018-01-19T03:06:04.277Z,3.30
2018-01-19T03:08:32.637Z,3.40
2018-01-19T03:11:01.781Z,3.40
2018-01-19T03:13:30.107Z,3.40
2018-01-19T03:15:59.216Z,3.50
2018-01-19T03:18:27.596Z,3.50
2018-01-19T03:20:56.721Z,3.50
2018-01-19T03:23:25.113Z,3.50
2018-01-19T03:25:53.498Z,3.50
2018-01-19T03:28:21.816Z,3.50
2018-01-19T03:30:50.928Z,3.60
2018-01-19T03:33:19.246Z,3.60
2018-01-19T03:35:47.598Z,3.50
2018-01-19T03:38:15.920Z,3.50
2018-01-19T03:40:44.248Z,3.60
2018-01-19T03:43:12.590Z,3.50
2018-01-19T03:45:40.986Z,3.50
2018-01-19T03:48:10.056Z,3.50
2018-01-19T03:50:38.404Z,3.50
2018-01-19T03:53:06.746Z,3.50
2018-01-19T03:55:35.849Z,3.60
2018-01-19T03:58:04.929Z,3.60
2018-01-19T04:00:33.419Z,3.50
2018-01-19T04:03:01.759Z,3.60
2018-01-19T04:05:30.099Z,3.60
2018-01-19T04:07:58.413Z,3.60
2018-01-19T04:10:26.755Z,3.60
2018-01-19T04:12:55.082Z,3.70
2018-01-19T04:15:23.433Z,3.60
2018-01-19T04:17:51.737Z,3.70
2018-01-19T04:20:20.078Z,3.60
2018-01-19T04:22:48.386Z,3.70
2018-01-19T04:25:16.743Z,3.70
2018-01-19T04:27:45.070Z,3.60
2018-01-19T04:30:14.054Z,3.60
2018-01-19T04:32:42.368Z,3.60
2018-01-19T04:35:10.696Z,3.60
2018-01-19T04:37:39.018Z,3.60
2018-01-19T04:40:07.361Z,3.60
2018-01-19T04:42:35.719Z,3.60
2018-01-19T04:45:04.040Z,3.60
2018-01-19T04:47:33.134Z,3.60
2018-01-19T04:50:02.245Z,3.60
2018-01-19T04:52:30.601Z,3.60
2018-01-19T04:54:58.938Z,3.50
2018-01-19T04:57:27.293Z,3.50
2018-01-19T04:59:55.639Z,3.40
2018-01-19T05:02:23.979Z,3.50
2018-01-19T05:04:52.284Z,3.50
2018-01-19T05:07:20.619Z,3.50
2018-01-19T05:09:48.938Z,3.50
2018-01-19T05:12:17.321Z,3.50
2018-01-19T05:14:45.678Z,3.60
2018-01-19T05:17:13.994Z,3.60
2018-01-19T05:19:43.080Z,3.50
2018-01-19T05:22:11.419Z,3.50
2018-01-19T05:24:39.733Z,3.50
2018-01-19T05:27:08.072Z,3.60
2018-01-19T05:29:36.385Z,3.60
2018-01-19T05:32:04.765Z,3.60
2018-01-19T05:34:33.075Z,3.60
2018-01-19T05:37:01.423Z,3.60
2018-01-19T05:39:29.737Z,3.60
2018-01-19T05:41:58.840Z,3.60
2018-01-19T05:44:27.173Z,3.50
2018-01-19T05:46:55.502Z,3.60
2018-01-19T05:49:23.819Z,3.50
2018-01-19T05:51:52.168Z,3.50
2018-01-19T05:54:20.540Z,3.60
2018-01-19T05:56:48.895Z,3.50
2018-01-19T05:59:17.980Z,3.50
2018-01-19T06:01:46.331Z,3.50
2018-01-19T06:04:14.658Z,3.40
2018-01-19T06:06:43.750Z,3.40
2018-01-19T06:09:12.837Z,3.40
2018-01-19T06:11:41.188Z,3.40
2018-01-19T06:14:09.496Z,3.30
2018-01-19T06:16:38.593Z,3.20
2018-01-19T06:19:07.684Z,3.20
2018-01-19T06:21:36.017Z,3.10
2018-01-19T06:24:04.344Z,3.10
2018-01-19T06:26:33.473Z,3.00
2018-01-19T06:29:01.792Z,3.10
2018-01-19T06:31:30.133Z,3.00
2018-01-19T06:33:58.453Z,3.10
2018-01-19T06:36:26.791Z,3.00
2018-01-19T06:38:55.122Z,3.00
2018-01-19T06:41:23.456Z,3.00
2018-01-19T06:43:51.761Z,3.00
2018-01-19T06:46:20.099Z,3.00
2018-01-19T06:48:48.425Z,3.00
2018-01-19T06:51:16.768Z,2.90
2018-01-19T06:53:45.083Z,2.90
2018-01-19T06:56:13.425Z,2.90
2018-01-19T06:58:41.740Z,3.00
2018-01-19T07:01:10.080Z,2.90
2018-01-19T07:03:38.399Z,2.90
2018-01-19T07:06:06.736Z,2.90
2018-01-19T07:08:35.071Z,3.00
2018-01-19T07:11:03.403Z,3.10
2018-01-19T07:13:31.706Z,3.10
2018-01-19T07:16:00.060Z,3.00
2018-01-19T07:18:28.386Z,3.00
2018-01-19T07:20:56.734Z,2.90
2018-01-19T07:23:25.042Z,2.90
2018-01-19T07:25:53.387Z,2.90
2018-01-19T07:28:21.689Z,2.90
2018-01-19T07:30:50.024Z,2.80
2018-01-19T07:33:18.373Z,2.90
2018-01-19T07:35:47.452Z,3.00
2018-01-19T07:38:15.800Z,3.00
2018-01-19T07:40:44.115Z,3.20
2018-01-19T07:43:13.203Z,3.10
2018-01-19T07:45:41.545Z,3.10
2018-01-19T07:48:09.892Z,2.90
2018-01-19T07:50:38.272Z,2.60
2018-01-19T07:53:06.883Z,2.30
2018-01-19T07:55:36.051Z,1.80
2018-01-19T07:58:04.415Z,1.80
2018-01-19T08:00:32.763Z,1.70
2018-01-19T08:03:01.932Z,1.70
2018-01-19T08:05:30.347Z,1.70
2018-01-19T08:07:58.709Z,1.70
2018-01-19T08:10:27.047Z,1.70
2018-01-19T08:12:55.417Z,1.70
2018-01-19T08:21:24.361Z,1.70
2018-01-19T08:23:52.699Z,1.70
2018-01-19T08:26:21.012Z,1.80
2018-01-19T08:28:49.353Z,1.80
2018-01-19T08:31:17.667Z,1.90
2018-01-19T08:33:46.773Z,2.00
2018-01-19T08:36:15.084Z,2.00
2018-01-19T08:38:43.427Z,2.10
2018-01-19T08:41:11.780Z,2.10
2018-01-19T08:43:40.068Z,2.20
2018-01-19T08:46:09.162Z,2.90
2018-01-19T08:48:38.262Z,3.30
2018-01-19T08:51:07.376Z,3.50
2018-01-19T08:53:36.440Z,3.50
2018-01-19T08:56:04.786Z,3.50
2018-01-19T08:58:34.120Z,3.30
2018-01-19T09:01:02.457Z,3.20
2018-01-19T09:03:30.770Z,3.20
2018-01-19T09:05:59.115Z,3.10
2018-01-19T09:08:27.410Z,3.00
2018-01-19T09:10:55.795Z,3.00
2018-01-19T09:13:24.109Z,3.00
2018-01-19T09:15:53.205Z,3.10
2018-01-19T09:18:22.293Z,3.10
2018-01-19T09:20:51.381Z,3.20
2018-01-19T09:23:19.716Z,3.20
2018-01-19T09:25:48.038Z,3.20
2018-01-19T09:28:16.388Z,3.40
2018-01-19T09:30:44.704Z,3.70
2018-01-19T09:33:13.043Z,3.90
2018-01-19T09:35:41.349Z,4.10
2018-01-19T09:38:09.704Z,4.00
2018-01-19T09:40:38.033Z,4.00
2018-01-19T09:43:06.334Z,3.90
2018-01-19T09:45:34.661Z,3.80
2018-01-19T09:48:02.982Z,3.70
2018-01-19T09:50:31.345Z,3.60
2018-01-19T09:52:59.713Z,3.60
2018-01-19T09:55:28.073Z,3.60
2018-01-19T09:57:57.183Z,3.50
2018-01-19T10:00:25.521Z,3.40
2018-01-19T10:02:53.837Z,3.50
2018-01-19T10:05:22.171Z,3.60
2018-01-19T10:07:50.510Z,3.60
2018-01-19T10:10:18.833Z,3.70
2018-01-19T10:12:47.190Z,3.80
2018-01-19T10:15:15.511Z,3.70
2018-01-19T10:17:43.845Z,3.80
2018-01-19T10:20:12.175Z,3.80
2018-01-19T10:22:40.538Z,3.80
2018-01-19T10:25:08.881Z,3.80
2018-01-19T10:27:37.231Z,3.90
2018-01-19T10:30:05.541Z,3.90
2018-01-19T10:32:33.864Z,4.00
2018-01-19T10:35:02.173Z,4.00
2018-01-19T10:37:31.301Z,4.10
2018-01-19T10:39:59.603Z,4.00
2018-01-19T10:42:27.918Z,4.10
2018-01-19T10:44:56.245Z,4.10
2018-01-19T10:47:24.557Z,4.10
2018-01-19T10:49:52.898Z,4.10
2018-01-19T10:52:21.974Z,4.20
2018-01-19T10:54:51.068Z,4.10
2018-01-19T10:57:20.944Z,4.20
2018-01-19T10:59:49.287Z,4.20
2018-01-19T11:02:17.600Z,4.20
2018-01-19T11:04:45.908Z,4.10
2018-01-19T11:07:15.000Z,4.10
2018-01-19T11:09:44.107Z,4.10
2018-01-19T11:12:13.204Z,4.20
2018-01-19T11:14:42.290Z,4.20
2018-01-19T11:17:11.369Z,4.20
2018-01-19T11:19:39.712Z,4.20
2018-01-19T11:22:08.045Z,4.20
2018-01-19T11:24:37.116Z,4.20
2018-01-19T11:27:05.453Z,4.20
2018-01-19T11:29:33.768Z,4.30
2018-01-19T11:32:02.111Z,4.20
2018-01-19T11:34:31.367Z,4.30
2018-01-19T11:36:59.704Z,4.30
2018-01-19T11:39:28.024Z,4.30
2018-01-19T11:41:57.125Z,4.30
2018-01-19T11:44:26.204Z,4.30
2018-01-19T11:46:54.558Z,4.20
2018-01-19T11:49:22.862Z,4.30
2018-01-19T11:51:51.166Z,4.30
2018-01-19T11:54:20.267Z,4.30
2018-01-19T11:56:49.338Z,4.30
2018-01-19T11:59:17.672Z,4.30
2018-01-19T12:01:45.989Z,4.30
2018-01-19T12:04:14.341Z,4.30
2018-01-19T12:06:42.647Z,4.30
2018-01-19T12:09:10.982Z,4.40
2018-01-19T12:11:39.291Z,4.40
2018-01-19T12:14:07.631Z,4.40
2018-01-19T12:16:35.964Z,4.40
2018-01-19T12:19:04.267Z,4.50
2018-01-19T12:21:33.366Z,4.50
2018-01-19T12:24:02.471Z,4.50
2018-01-19T12:26:30.846Z,4.40
2018-01-19T12:28:59.899Z,4.40
2018-01-19T12:31:28.236Z,4.40
2018-01-19T12:33:56.559Z,4.40
2018-01-19T12:36:24.905Z,4.40
2018-01-19T12:38:53.217Z,4.40
2018-01-19T12:41:21.545Z,4.40
2018-01-19T12:43:49.852Z,4.40
2018-01-19T12:46:18.176Z,4.40
2018-01-19T12:48:47.262Z,4.40
2018-01-19T12:51:15.580Z,4.40
2018-01-19T12:53:43.907Z,4.40
2018-01-19T12:56:12.211Z,4.40
2018-01-19T12:58:41.309Z,4.20
2018-01-19T13:01:10.376Z,4.30
2018-01-19T13:03:38.695Z,4.20
2018-01-19T13:06:07.002Z,4.40
2018-01-19T13:08:35.328Z,4.50
2018-01-19T13:11:04.405Z,4.80
2018-01-19T13:13:32.714Z,4.80
2018-01-19T13:16:01.817Z,5.10
2018-01-19T13:18:31.068Z,5.20
2018-01-19T13:20:59.391Z,5.10
2018-01-19T13:23:28.481Z,5.00
2018-01-19T13:25:57.573Z,4.90
2018-01-19T13:28:26.638Z,5.00
2018-01-19T13:30:54.975Z,4.90
2018-01-19T13:33:23.287Z,4.90
2018-01-19T13:35:51.609Z,5.00
2018-01-19T13:38:20.681Z,4.90
2018-01-19T13:40:49.021Z,4.90
2018-01-19T13:43:17.321Z,4.90
2018-01-19T13:45:45.663Z,4.90
2018-01-19T13:48:13.968Z,4.90
2018-01-19T13:50:42.275Z,4.90
2018-01-19T13:53:10.601Z,5.00
2018-01-19T13:55:38.922Z,5.00
2018-01-19T13:58:07.231Z,5.00
2018-01-19T14:00:36.298Z,4.90
2018-01-19T14:03:04.625Z,4.90
2018-01-19T14:05:32.911Z,4.80
2018-01-19T14:08:01.997Z,4.80
2018-01-19T14:10:30.308Z,4.80
2018-01-19T14:12:58.635Z,5.00
2018-01-19T14:15:27.716Z,5.40
2018-01-19T14:17:56.027Z,5.30
2018-01-19T14:20:24.331Z,5.40
2018-01-19T14:22:52.628Z,5.40
2018-01-19T14:25:20.938Z,5.30
2018-01-19T14:27:50.004Z,5.10
2018-01-19T14:30:18.310Z,5.10
2018-01-19T14:32:47.372Z,4.90
2018-01-19T14:35:15.696Z,4.90
2018-01-19T14:37:47.416Z,4.80
2018-01-19T14:40:15.728Z,4.80
2018-01-19T14:42:44.790Z,4.70
2018-01-19T14:45:13.108Z,4.60
2018-01-19T14:47:42.207Z,4.50
2018-01-19T14:50:10.529Z,4.40
2018-01-19T14:52:38.817Z,4.50
2018-01-19T14:55:07.156Z,4.50
2018-01-19T14:57:35.462Z,4.50
2018-01-19T15:00:03.784Z,4.50
2018-01-19T15:02:32.871Z,4.40
2018-01-19T15:05:01.936Z,4.40
2018-01-19T15:07:30.253Z,4.40
2018-01-19T15:09:59.323Z,4.20
2018-01-19T15:12:27.652Z,4.20
2018-01-19T15:14:55.959Z,4.20
2018-01-19T15:17:24.266Z,4.10
2018-01-19T15:19:52.573Z,4.10
2018-01-19T15:22:20.883Z,4.20
2018-01-19T15:24:49.171Z,4.10
2018-01-19T15:27:17.503Z,4.10
2018-01-19T15:29:46.564Z,4.00
2018-01-19T15:32:14.900Z,4.00
2018-01-19T15:34:43.214Z,4.00
2018-01-19T15:37:11.518Z,4.00
2018-01-19T15:39:39.841Z,3.80
2018-01-19T15:42:08.142Z,3.70
2018-01-19T15:44:37.241Z,3.50
2018-01-19T15:47:05.544Z,3.50
2018-01-19T15:49:33.860Z,3.50
2018-01-19T15:52:12.371Z,3.40
2018-01-19T15:54:40.690Z,3.30
2018-01-19T15:57:08.979Z,3.20
2018-01-19T15:59:37.345Z,3.20
2018-01-19T16:02:05.643Z,3.20
2018-01-19T16:04:33.974Z,3.20
2018-01-19T16:07:02.258Z,3.10
2018-01-19T16:09:30.584Z,3.10
2018-01-19T16:11:58.875Z,3.10
2018-01-19T16:14:27.981Z,3.00
2018-01-19T16:16:57.045Z,2.90
2018-01-19T16:19:25.356Z,2.90
2018-01-19T16:21:54.449Z,2.80
2018-01-19T16:24:24.439Z,2.60
2018-01-19T16:26:52.777Z,2.60
2018-01-19T16:29:21.077Z,2.70
2018-01-19T16:31:49.390Z,2.60
2018-01-19T16:34:17.692Z,2.60
2018-01-19T16:36:46.060Z,2.50
2018-01-19T16:39:15.111Z,2.10
2018-01-19T16:41:43.452Z,2.10
2018-01-19T16:44:11.763Z,1.90
2018-01-19T16:46:40.111Z,1.70
2018-01-19T16:49:08.408Z,1.80
2018-01-19T16:51:36.736Z,1.70
2018-01-19T16:54:05.061Z,1.70
2018-01-19T16:56:33.355Z,1.80
2018-01-19T16:59:01.682Z,1.90
2018-01-19T17:01:30.742Z,1.90
2018-01-19T17:03:59.090Z,1.80
2018-01-19T17:06:27.400Z,1.80
2018-01-19T17:08:55.727Z,1.80
2018-01-19T17:11:24.038Z,1.80
2018-01-19T17:13:52.375Z,1.70
2018-01-19T17:16:21.451Z,1.70
2018-01-19T17:18:49.791Z,1.70
2018-01-19T17:21:18.103Z,1.70
2018-01-19T17:23:47.229Z,1.60
2018-01-19T17:26:15.543Z,1.60
2018-01-19T17:28:43.891Z,1.40
2018-01-19T17:31:12.208Z,1.30
2018-01-19T17:33:40.519Z,1.30
2018-01-19T17:36:08.845Z,1.20
2018-01-19T17:38:40.452Z,1.20
2018-01-19T17:41:08.788Z,1.30
2018-01-19T17:43:37.089Z,1.40
2018-01-19T17:46:05.449Z,1.40
2018-01-19T17:48:33.748Z,1.40
2018-01-19T17:51:02.082Z,1.50
2018-01-19T17:53:30.405Z,1.30
2018-01-19T17:55:58.737Z,1.30
2018-01-19T17:58:27.043Z,1.20
2018-01-19T18:00:55.376Z,1.20
2018-01-19T18:03:24.447Z,1.20
2018-01-19T18:05:52.775Z,1.10
2018-01-19T18:08:21.079Z,1.20
2018-01-19T18:10:49.445Z,1.20
2018-01-19T18:13:17.749Z,1.30
2018-01-19T18:15:46.061Z,1.30
2018-01-19T18:18:15.157Z,1.60
2018-01-19T18:20:44.241Z,1.60
2018-01-19T18:23:14.483Z,1.60
2018-01-19T18:25:43.556Z,1.70
2018-01-19T18:28:11.891Z,1.70
2018-01-19T18:30:40.199Z,1.80
2018-01-19T18:33:08.522Z,1.80
2018-01-19T18:35:36.848Z,1.90
2018-01-19T18:38:05.173Z,1.90
2018-01-19T18:40:33.490Z,1.90
2018-01-19T18:43:01.855Z,2.00
2018-01-19T18:45:30.173Z,2.00
2018-01-19T18:47:58.552Z,2.00
2018-01-19T18:50:26.901Z,2.00
2018-01-19T18:52:56.000Z,2.10
2018-01-19T18:55:24.312Z,2.10
2018-01-19T18:57:52.648Z,2.00
2018-01-19T19:00:20.952Z,2.00
2018-01-19T19:02:49.257Z,2.00
2018-01-19T19:05:17.585Z,1.90
2018-01-19T19:07:46.867Z,1.80
2018-01-19T19:10:18.545Z,1.90
2018-01-19T19:12:46.866Z,1.80
2018-01-19T19:15:15.236Z,1.70
2018-01-19T19:17:43.535Z,1.60
2018-01-19T19:20:12.634Z,1.50
2018-01-19T19:22:41.766Z,1.40
2018-01-19T19:25:10.135Z,1.40
2018-01-19T19:27:38.440Z,1.30
2018-01-19T19:30:06.811Z,1.40
2018-01-19T19:32:35.179Z,1.40
2018-01-19T19:35:03.556Z,1.20
2018-01-19T19:37:31.916Z,1.10
2018-01-19T19:40:01.017Z,1.00
2018-01-19T19:42:29.331Z,1.00
2018-01-19T19:44:57.670Z,1.10
2018-01-19T19:47:26.756Z,1.20
2018-01-19T19:49:55.827Z,1.20
2018-01-19T19:52:24.198Z,1.20
2018-01-19T19:54:52.496Z,1.30
2018-01-19T19:57:33.921Z,1.30
2018-01-19T20:00:02.296Z,1.30
2018-01-19T20:02:30.630Z,1.20
2018-01-19T20:04:58.938Z,1.20
2018-01-19T20:07:28.086Z,1.20
2018-01-19T20:09:56.459Z,1.20
2018-01-19T20:12:24.800Z,1.20
2018-01-19T20:14:53.102Z,1.10
2018-01-19T20:17:21.485Z,1.10
2018-01-19T20:19:49.842Z,1.10
2018-01-19T20:22:18.229Z,1.10
2018-01-19T20:24:46.555Z,1.20
2018-01-19T20:27:14.963Z,1.20
2018-01-19T20:29:44.094Z,1.20
2018-01-19T20:32:12.463Z,1.20
2018-01-19T20:34:40.852Z,1.20
2018-01-19T20:37:09.178Z,1.20
2018-01-19T20:39:37.567Z,1.20
2018-01-19T20:42:05.941Z,1.10
2018-01-19T20:44:34.310Z,1.10
2018-01-19T20:47:02.676Z,1.10
2018-01-19T20:49:31.076Z,1.00
2018-01-19T20:51:59.427Z,0.90
2018-01-19T20:54:27.794Z,0.90
2018-01-19T20:56:56.141Z,1.00
2018-01-19T20:59:24.531Z,0.80
2018-01-19T21:01:52.847Z,0.80
2018-01-19T21:04:21.225Z,0.80
2018-01-19T21:06:49.596Z,0.70
2018-01-19T21:09:17.899Z,0.60
2018-01-19T21:11:46.289Z,0.70
2018-01-19T21:14:14.652Z,0.60
2018-01-19T21:16:42.997Z,0.60
2018-01-19T21:19:11.373Z,0.50
2018-01-19T21:21:39.749Z,0.60
2018-01-19T21:24:08.070Z,0.50
2018-01-19T21:26:36.413Z,0.50
2018-01-19T21:29:04.732Z,0.30
2018-01-19T21:31:33.122Z,0.20
2018-01-19T21:34:01.470Z,0.10
2018-01-19T21:36:29.872Z,0.00
2018-01-19T21:38:58.221Z,0.10
2018-01-19T21:41:26.551Z,0.00
2018-01-19T21:43:55.640Z,0.00
2018-01-19T21:46:24.811Z,0.00
2018-01-19T21:48:53.182Z,-0.10
2018-01-19T21:51:21.499Z,-0.10
2018-01-19T21:53:50.685Z,-0.30
2018-01-19T21:56:19.007Z,-0.40
2018-01-19T21:58:47.352Z,-0.40
2018-01-19T22:01:16.500Z,-0.30
2018-01-19T22:03:44.870Z,-0.30
2018-01-19T22:06:13.252Z,-0.40
2018-01-19T22:08:41.593Z,-0.50
2018-01-19T22:11:10.701Z,-0.70
2018-01-19T22:13:39.816Z,-0.70
2018-01-19T22:16:08.187Z,-0.70
2018-01-19T22:18:36.531Z,-0.50
2018-01-19T22:21:04.909Z,-0.50
2018-01-19T22:23:33.276Z,-0.50
2018-01-19T22:26:01.592Z,-0.60
2018-01-19T22:28:30.682Z,-0.40
2018-01-19T22:31:03.167Z,-0.30
2018-01-19T22:33:32.297Z,-0.30
2018-01-19T22:36:01.599Z,-0.30
2018-01-19T22:38:29.983Z,-0.40
2018-01-19T22:40:58.349Z,-0.30
2018-01-19T22:43:26.744Z,-0.50
2018-01-19T22:45:55.051Z,-0.40
2018-01-19T22:48:24.226Z,-0.40
2018-01-19T22:50:52.607Z,-0.40
2018-01-19T22:53:20.998Z,-0.40
2018-01-19T22:55:49.361Z,-0.40
2018-01-19T22:58:17.817Z,-0.40
2018-01-19T23:00:46.955Z,-0.30
2018-01-19T23:03:15.351Z,-0.40
2018-01-19T23:05:43.702Z,-0.30
2018-01-19T23:08:12.053Z,-0.10
2018-01-19T23:10:40.406Z,-0.20
2018-01-19T23:13:09.516Z,-0.10
2018-01-19T23:15:37.901Z,-0.20
2018-01-19T23:18:06.244Z,-0.10
2018-01-19T23:20:34.573Z,0.00
2018-01-19T23:23:02.918Z,-0.10
2018-01-19T23:25:32.037Z,-0.10
2018-01-19T23:28:00.412Z,-0.20
2018-01-19T23:30:28.777Z,-0.20
2018-01-19T23:32:57.917Z,-0.20
2018-01-19T23:35:26.270Z,-0.20
2018-01-19T23:37:54.658Z,-0.30
2018-01-19T23:40:22.966Z,-0.20
2018-01-19T23:42:51.344Z,-0.10
2018-01-19T23:45:19.688Z,0.10
2018-01-19T23:47:48.052Z,0.20
2018-01-19T23:50:16.523Z,0.10
2018-01-19T23:52:44.888Z,0.10
2018-01-19T23:55:13.268Z,0.10
2018-01-19T23:57:41.578Z,0.10
